createdAt,value
2023-02-01T00:00:34.277Z,10.65
2023-02-01T00:03:02.367Z,9.68
2023-02-01T00:05:29.328Z,9.90
2023-02-01T00:07:56.347Z,11.35
2023-02-01T00:10:23.661Z,11.60
2023-02-01T00:12:50.789Z,11.40
2023-02-01T00:15:17.815Z,12.60
2023-02-01T00:17:44.746Z,12.65
2023-02-01T00:20:12.211Z,13.15
2023-02-01T00:22:39.202Z,12.35
2023-02-01T00:25:06.855Z,11.27
2023-02-01T00:27:33.796Z,11.10
2023-02-01T00:30:00.849Z,9.52
2023-02-01T00:32:27.780Z,9.88
2023-02-01T00:34:54.799Z,11.13
2023-02-01T00:37:22.635Z,11.35
2023-02-01T00:39:50.698Z,9.75
2023-02-01T00:42:17.669Z,10.00
2023-02-01T00:44:44.682Z,9.90
2023-02-01T00:47:11.836Z,8.30
2023-02-01T00:49:38.808Z,10.93
2023-02-01T00:52:05.951Z,10.32
2023-02-01T00:54:33.910Z,10.30
2023-02-01T00:57:00.839Z,10.63
2023-02-01T00:59:27.839Z,10.68
2023-02-01T01:01:55.886Z,9.43
2023-02-01T01:04:23.275Z,10.68
2023-02-01T01:06:50.280Z,9.82
2023-02-01T01:09:17.208Z,10.52
2023-02-01T01:11:44.324Z,11.02
2023-02-01T01:14:11.901Z,11.40
2023-02-01T01:16:39.031Z,11.23
2023-02-01T01:19:06.581Z,10.80
2023-02-01T01:21:34.730Z,11.73
2023-02-01T01:24:01.934Z,10.25
2023-02-01T01:26:30.508Z,10.57
2023-02-01T01:28:59.306Z,13.32
2023-02-01T01:31:27.452Z,10.00
2023-02-01T01:33:56.714Z,11.55
2023-02-01T01:36:24.365Z,11.40
2023-02-01T01:38:51.684Z,9.25
2023-02-01T01:41:22.723Z,9.40
2023-02-01T01:43:53.546Z,9.05
2023-02-01T01:46:33.955Z,10.63
2023-02-01T01:49:13.020Z,9.25
2023-02-01T01:51:49.950Z,9.80
2023-02-01T01:54:26.561Z,10.85
2023-02-01T01:57:00.122Z,11.75
2023-02-01T01:59:27.997Z,12.68
2023-02-01T02:01:56.920Z,10.30
2023-02-01T02:04:24.758Z,9.43
2023-02-01T02:07:00.717Z,8.10
2023-02-01T02:09:27.768Z,8.15
2023-02-01T02:11:54.766Z,9.55
2023-02-01T02:14:24.440Z,11.30
2023-02-01T02:17:09.274Z,11.38
2023-02-01T02:19:57.739Z,11.43
2023-02-01T02:22:48.837Z,10.18
2023-02-01T02:25:27.909Z,10.27
2023-02-01T02:28:22.332Z,11.40
2023-02-01T02:31:20.634Z,10.95
2023-02-01T02:34:02.277Z,12.25
2023-02-01T02:36:34.493Z,11.95
2023-02-01T02:39:28.094Z,11.52
2023-02-01T02:42:36.226Z,11.27
2023-02-01T02:45:28.970Z,12.80
2023-02-01T02:47:57.880Z,14.13
2023-02-01T02:50:53.805Z,12.25
2023-02-01T02:54:12.448Z,12.23
2023-02-01T02:56:59.273Z,13.48
2023-02-01T02:59:47.688Z,11.90
2023-02-01T03:02:34.694Z,10.50
2023-02-01T03:05:01.821Z,10.95
2023-02-01T03:07:50.431Z,13.70
2023-02-01T03:10:52.628Z,13.27
2023-02-01T03:13:25.107Z,13.30
2023-02-01T03:16:11.105Z,16.05
2023-02-01T03:18:53.608Z,14.95
2023-02-01T03:21:32.394Z,14.40
2023-02-01T03:24:05.867Z,14.32
2023-02-01T03:29:10.134Z,14.55
2023-02-01T03:31:37.704Z,15.15
2023-02-01T03:34:05.348Z,16.17
2023-02-01T03:36:40.128Z,18.33
2023-02-01T03:39:20.107Z,18.77
2023-02-01T03:41:56.674Z,17.40
2023-02-01T03:44:25.559Z,17.58
2023-02-01T03:46:55.244Z,17.15
2023-02-01T03:49:30.631Z,17.45
2023-02-01T03:52:00.821Z,18.20
2023-02-01T03:54:29.631Z,18.38
2023-02-01T03:57:00.771Z,19.67
2023-02-01T03:59:27.747Z,19.73
2023-02-01T04:01:54.734Z,18.92
2023-02-01T04:04:21.866Z,18.33
2023-02-01T04:06:53.204Z,19.88
2023-02-01T04:09:21.091Z,18.02
2023-02-01T04:11:48.028Z,17.05
2023-02-01T04:14:14.988Z,19.25
2023-02-01T04:16:41.904Z,18.67
2023-02-01T04:19:09.067Z,21.27
2023-02-01T04:21:36.019Z,22.40
2023-02-01T04:24:02.994Z,20.38
2023-02-01T04:26:30.029Z,20.33
2023-02-01T04:28:57.058Z,21.17
2023-02-01T04:31:26.703Z,22.77
2023-02-01T04:33:55.190Z,23.50
2023-02-01T04:36:23.274Z,22.15
2023-02-01T04:38:51.398Z,28.17
2023-02-01T04:41:23.798Z,25.45
2023-02-01T04:43:53.064Z,24.02
2023-02-01T04:46:20.091Z,23.38
2023-02-01T04:48:47.094Z,22.45
2023-02-01T04:51:14.254Z,21.67
2023-02-01T04:53:41.221Z,20.85
2023-02-01T04:56:08.987Z,18.90
2023-02-01T04:58:35.912Z,20.00
2023-02-01T05:01:07.628Z,20.35
2023-02-01T05:03:35.003Z,20.52
2023-02-01T05:06:02.047Z,21.98
2023-02-01T05:08:29.827Z,19.98
2023-02-01T05:10:56.857Z,19.58
2023-02-01T05:13:42.228Z,20.23
2023-02-01T05:16:09.329Z,22.38
2023-02-01T05:18:36.329Z,23.80
2023-02-01T05:21:03.551Z,24.75
2023-02-01T05:23:30.706Z,21.83
2023-02-01T05:26:01.741Z,23.08
2023-02-01T05:28:29.379Z,23.42
2023-02-01T05:30:56.500Z,23.60
2023-02-01T05:33:23.495Z,23.10
2023-02-01T05:35:51.507Z,23.27
2023-02-01T05:38:18.569Z,22.23
2023-02-01T05:40:50.592Z,23.58
2023-02-01T05:43:17.899Z,21.95
2023-02-01T05:45:44.863Z,22.88
2023-02-01T05:48:11.866Z,22.45
2023-02-01T05:50:38.931Z,21.85
2023-02-01T05:53:09.649Z,23.17
2023-02-01T05:55:37.797Z,23.25
2023-02-01T05:58:05.778Z,23.63
2023-02-01T06:00:33.021Z,22.52
2023-02-01T06:03:00.209Z,25.20
2023-02-01T06:05:27.152Z,25.60
2023-02-01T06:07:54.287Z,26.40
2023-02-01T06:10:21.605Z,27.58
2023-02-01T06:12:48.903Z,27.65
2023-02-01T06:15:19.512Z,28.73
2023-02-01T06:17:47.061Z,28.05
2023-02-01T06:20:15.964Z,26.30
2023-02-01T06:22:43.020Z,28.00
2023-02-01T06:25:11.532Z,27.77
2023-02-01T06:27:38.903Z,27.85
2023-02-01T06:30:07.456Z,28.88
2023-02-01T06:32:35.613Z,31.17
2023-02-01T06:35:02.636Z,30.55
2023-02-01T06:37:30.524Z,27.85
2023-02-01T06:39:57.611Z,26.63
2023-02-01T06:42:24.575Z,27.20
2023-02-01T06:44:52.692Z,28.85
2023-02-01T06:47:19.907Z,29.35
2023-02-01T06:49:46.855Z,28.65
2023-02-01T06:52:13.751Z,30.80
2023-02-01T06:54:40.721Z,28.15
2023-02-01T06:57:07.680Z,31.45
2023-02-01T06:59:34.769Z,31.85
2023-02-01T07:02:01.876Z,32.67
2023-02-01T07:04:28.955Z,34.53
2023-02-01T07:06:55.916Z,32.22
2023-02-01T07:09:22.936Z,34.20
2023-02-01T07:11:49.964Z,35.38
2023-02-01T07:14:17.056Z,35.92
2023-02-01T07:16:43.997Z,38.65
2023-02-01T07:19:11.112Z,37.75
2023-02-01T07:21:38.056Z,34.63
2023-02-01T07:24:05.680Z,33.95
2023-02-01T07:26:33.479Z,32.97
2023-02-01T07:29:00.982Z,34.05
2023-02-01T07:31:30.053Z,36.85
2023-02-01T07:33:58.758Z,38.33
2023-02-01T07:36:26.146Z,33.92
2023-02-01T07:38:56.516Z,31.77
2023-02-01T07:41:24.961Z,32.13
2023-02-01T07:43:54.322Z,34.70
2023-02-01T07:51:17.371Z,31.85
2023-02-01T07:53:45.289Z,34.72
2023-02-01T07:56:19.074Z,38.30
2023-02-01T07:58:55.637Z,38.17
2023-02-01T08:01:27.415Z,35.15
2023-02-01T08:04:00.405Z,34.10
2023-02-01T08:06:28.906Z,35.42
2023-02-01T08:08:56.421Z,37.90
2023-02-01T08:11:25.108Z,37.15
2023-02-01T08:13:52.467Z,40.55
2023-02-01T08:16:20.825Z,40.17
2023-02-01T08:18:47.908Z,38.92
2023-02-01T08:21:24.268Z,42.22
2023-02-01T08:23:51.360Z,44.28
2023-02-01T08:26:22.837Z,44.10
2023-02-01T08:28:52.929Z,41.75
2023-02-01T08:31:22.354Z,45.67
2023-02-01T08:33:52.896Z,42.65
2023-02-01T08:36:21.076Z,42.67
2023-02-01T08:38:48.120Z,43.78
2023-02-01T08:41:18.116Z,43.85
2023-02-01T08:43:46.316Z,43.38
2023-02-01T08:46:13.596Z,43.20
2023-02-01T08:48:42.181Z,46.08
2023-02-01T08:51:12.255Z,46.35
2023-02-01T08:53:42.275Z,45.35
2023-02-01T08:56:13.878Z,50.85
2023-02-01T08:58:41.607Z,45.88
2023-02-01T09:01:11.899Z,45.42
2023-02-01T09:03:38.949Z,47.03
2023-02-01T09:06:11.823Z,48.38
2023-02-01T09:08:40.333Z,46.30
2023-02-01T09:11:12.633Z,42.50
2023-02-01T09:13:39.692Z,44.72
2023-02-01T09:16:07.214Z,45.63
2023-02-01T09:18:34.807Z,47.45
2023-02-01T09:21:06.660Z,48.92
2023-02-01T09:23:34.044Z,53.85
2023-02-01T09:26:05.339Z,57.50
2023-02-01T09:28:33.268Z,54.58
2023-02-01T09:31:01.450Z,55.72
2023-02-01T09:33:29.847Z,52.88
2023-02-01T09:36:03.009Z,53.20
2023-02-01T09:38:31.056Z,53.53
2023-02-01T09:40:59.669Z,51.00
2023-02-01T09:43:50.941Z,51.38
2023-02-01T09:46:33.531Z,48.08
2023-02-01T09:49:25.137Z,49.83
2023-02-01T09:54:25.084Z,52.72
2023-02-01T09:57:05.764Z,50.60
2023-02-01T10:04:38.795Z,49.45
2023-02-01T10:10:33.394Z,50.35
2023-02-01T15:15:22.951Z,78.45
2023-02-01T15:17:58.540Z,84.22
2023-02-01T15:20:28.472Z,71.00
2023-02-01T15:23:06.668Z,68.97
2023-02-01T15:25:39.626Z,71.13
2023-02-01T15:28:11.485Z,69.47
2023-02-01T15:30:40.317Z,67.43
2023-02-01T15:33:16.051Z,65.78
2023-02-01T15:35:45.681Z,64.55
2023-02-01T15:38:24.685Z,70.35
2023-02-01T15:41:00.507Z,66.85
2023-02-01T15:43:29.408Z,68.72
2023-02-01T15:46:08.305Z,72.38
2023-02-01T15:48:55.668Z,67.70
2023-02-01T15:51:25.356Z,64.28
2023-02-01T15:54:20.862Z,63.60
2023-02-01T15:56:53.909Z,62.88
2023-02-01T15:59:26.662Z,66.03
2023-02-01T16:01:53.714Z,60.22
2023-02-01T16:04:26.654Z,64.57
2023-02-01T16:07:05.764Z,63.77
2023-02-01T16:09:42.161Z,62.60
2023-02-01T16:12:44.191Z,61.65
2023-02-01T16:15:11.163Z,67.70
2023-02-01T16:17:38.195Z,65.35
2023-02-01T16:20:05.546Z,62.80
2023-02-01T16:22:32.488Z,64.47
2023-02-01T16:24:59.440Z,61.60
2023-02-01T16:27:26.345Z,64.97
2023-02-01T16:29:56.847Z,65.10
2023-02-01T16:32:23.980Z,66.18
2023-02-01T16:34:50.998Z,66.03
2023-02-01T16:37:22.356Z,65.78
2023-02-01T16:39:49.536Z,67.55
2023-02-01T16:42:17.406Z,63.92
2023-02-01T16:44:44.805Z,69.00
2023-02-01T16:47:22.305Z,66.35
2023-02-01T16:49:50.366Z,71.40
2023-02-01T16:52:20.502Z,69.47
2023-02-01T16:54:48.471Z,65.88
2023-02-01T16:57:17.021Z,64.72
2023-02-01T16:59:45.772Z,68.07
2023-02-01T17:02:20.297Z,69.32
2023-02-01T17:04:49.555Z,70.72
2023-02-01T17:07:20.258Z,71.90
2023-02-01T17:09:48.351Z,73.82
2023-02-01T17:12:27.487Z,73.13
2023-02-01T17:14:55.376Z,69.43
2023-02-01T17:17:36.817Z,68.97
2023-02-01T17:20:07.131Z,68.95
2023-02-01T17:22:34.274Z,64.43
2023-02-01T17:25:01.246Z,62.08
2023-02-01T17:27:30.238Z,63.92
2023-02-01T17:29:57.309Z,62.75
2023-02-01T17:32:25.924Z,61.45
2023-02-01T17:34:54.157Z,61.70
2023-02-01T17:37:28.897Z,60.25
2023-02-01T17:39:57.270Z,62.45
2023-02-01T17:42:26.004Z,61.30
2023-02-01T17:44:56.792Z,61.17
2023-02-01T17:47:24.074Z,57.67
2023-02-01T17:49:56.345Z,60.40
2023-02-01T17:52:25.044Z,62.60
2023-02-01T17:54:54.127Z,58.70
2023-02-01T17:57:21.618Z,59.03
2023-02-01T17:59:48.997Z,61.53
2023-02-01T18:02:23.794Z,59.28
2023-02-01T18:04:51.960Z,56.75
2023-02-01T18:07:19.123Z,55.25
2023-02-01T18:09:46.097Z,59.25
2023-02-01T18:12:20.770Z,58.33
2023-02-01T18:14:47.884Z,55.55
2023-02-01T18:17:15.110Z,55.30
2023-02-01T18:19:42.057Z,51.88
2023-02-01T18:22:19.882Z,48.50
2023-02-01T18:24:46.815Z,49.80
2023-02-01T18:27:13.866Z,48.47
2023-02-01T18:29:40.850Z,41.40
2023-02-01T18:32:10.715Z,43.30
2023-02-01T18:34:37.649Z,45.08
2023-02-01T18:37:04.797Z,39.90
2023-02-01T18:39:31.769Z,36.90
2023-02-01T18:41:59.131Z,40.05
2023-02-01T18:46:53.197Z,37.40
2023-02-01T18:49:20.188Z,34.93
2023-02-01T18:54:14.291Z,34.75
2023-02-01T19:01:38.934Z,35.67
2023-02-01T19:06:46.204Z,36.30
2023-02-01T19:14:07.096Z,32.95
2023-02-01T19:16:36.114Z,34.43
2023-02-01T19:19:03.162Z,34.38
2023-02-01T19:23:57.061Z,38.22
2023-02-01T19:26:24.083Z,37.97
2023-02-01T19:33:45.072Z,37.80
2023-02-01T21:36:53.330Z,22.77
2023-02-01T21:39:20.300Z,20.58
2023-02-01T21:42:05.880Z,18.88
2023-02-01T21:44:32.832Z,18.00
2023-02-01T21:46:59.710Z,23.13
2023-02-01T21:49:29.025Z,20.45
2023-02-01T21:51:56.759Z,17.83
2023-02-01T21:54:23.708Z,17.05
2023-02-01T21:56:50.651Z,20.02
2023-02-01T21:59:18.528Z,18.88
2023-02-01T22:01:46.720Z,15.50
2023-02-01T22:04:13.675Z,15.93
2023-02-01T22:06:45.939Z,17.92
2023-02-01T22:09:21.639Z,20.85
2023-02-01T22:11:49.745Z,18.20
2023-02-01T22:14:17.107Z,15.30
2023-02-01T22:16:44.611Z,16.35
2023-02-01T22:19:14.863Z,17.42
2023-02-01T22:21:43.658Z,14.90
2023-02-01T22:24:13.029Z,13.38
2023-02-01T22:26:40.623Z,11.48
2023-02-01T22:29:09.422Z,10.75
2023-02-01T22:31:36.529Z,10.98
2023-02-01T22:34:04.006Z,11.48
2023-02-01T22:36:31.814Z,11.60
2023-02-01T22:38:58.817Z,11.48
2023-02-01T22:41:25.762Z,11.20
2023-02-01T22:43:52.815Z,10.77
2023-02-01T22:46:42.545Z,10.52
2023-02-01T22:49:09.472Z,10.70
2023-02-01T22:51:36.507Z,9.68
2023-02-01T22:54:03.864Z,10.25
2023-02-01T22:56:37.644Z,9.55
2023-02-01T22:59:07.226Z,8.20
2023-02-01T23:01:35.099Z,9.55
2023-02-01T23:04:05.329Z,8.63
2023-02-01T23:06:33.245Z,8.90
2023-02-01T23:09:03.073Z,9.35
2023-02-01T23:11:30.094Z,8.77
2023-02-01T23:13:57.151Z,9.13
2023-02-01T23:16:24.538Z,9.23
2023-02-01T23:18:51.585Z,8.68
2023-02-01T23:21:21.576Z,8.63
2023-02-01T23:23:53.860Z,7.35
2023-02-01T23:26:21.786Z,7.25
2023-02-01T23:28:50.778Z,7.40
2023-02-01T23:31:17.966Z,7.45
2023-02-01T23:33:45.912Z,8.45
2023-02-01T23:36:16.037Z,8.63
2023-02-01T23:38:47.036Z,8.48
2023-02-01T23:41:16.419Z,9.70
2023-02-01T23:43:59.285Z,8.95
2023-02-01T23:46:29.893Z,7.07
2023-02-01T23:48:57.529Z,7.38
2023-02-01T23:51:25.463Z,6.22
2023-02-01T23:53:53.281Z,6.45
2023-02-01T23:56:23.535Z,6.57
2023-02-01T23:58:51.954Z,7.50
